sensor_id;sensor_type;location;lat;lon;timestamp;pressure;altitude;pressure_sealevel;temperature;humidity
70571;BME280;58135;50.948;-1.458;2022-07-23T00:00:16;101571.45;;;20.26;13.99
70571;BME280;58135;50.948;-1.458;2022-07-23T00:02:41;101570.33;;;19.41;14.13
70571;BME280;58135;50.948;-1.458;2022-07-23T00:05:07;101565.21;;;20.51;13.66
70571;BME280;58135;50.948;-1.458;2022-07-23T00:07:31;101567.18;;;18.69;14.11
70571;BME280;58135;50.948;-1.458;2022-07-23T00:09:56;101574.46;;;19.34;14.36
70571;BME280;58135;50.948;-1.458;2022-07-23T00:12:22;101578.86;;;20.82;14.14
70571;BME280;58135;50.948;-1.458;2022-07-23T00:14:48;101579.65;;;18.00;14.45
70571;BME280;58135;50.948;-1.458;2022-07-23T00:17:13;101578.26;;;18.74;14.21
70571;BME280;58135;50.948;-1.458;2022-07-23T00:19:38;101573.94;;;18.10;14.33
70571;BME280;58135;50.948;-1.458;2022-07-23T00:22:04;101574.01;;;20.89;14.18
70571;BME280;58135;50.948;-1.458;2022-07-23T00:24:29;101574.08;;;17.22;14.10
70571;BME280;58135;50.948;-1.458;2022-07-23T00:26:55;101572.34;;;19.67;13.69
70571;BME280;58135;50.948;-1.458;2022-07-23T00:29:21;101572.21;;;18.84;13.71
70571;BME280;58135;50.948;-1.458;2022-07-23T00:31:46;101566.95;;;19.94;14.45
70571;BME280;58135;50.948;-1.458;2022-07-23T00:34:11;101567.88;;;18.60;14.41
70571;BME280;58135;50.948;-1.458;2022-07-23T00:36:37;101566.62;;;18.93;14.33
70571;BME280;58135;50.948;-1.458;2022-07-23T00:39:03;101562.97;;;19.88;13.75
70571;BME280;58135;50.948;-1.458;2022-07-23T00:41:28;101564.67;;;18.00;14.26
70571;BME280;58135;50.948;-1.458;2022-07-23T00:43:54;101564.58;;;18.20;14.21
70571;BME280;58135;50.948;-1.458;2022-07-23T00:46:19;101570.52;;;20.34;14.12
70571;BME280;58135;50.948;-1.458;2022-07-23T00:48:45;101568.52;;;17.60;14.20
70571;BME280;58135;50.948;-1.458;2022-07-23T00:51:10;101562.16;;;19.50;14.30
70571;BME280;58135;50.948;-1.458;2022-07-23T00:53:36;101560.79;;;20.45;14.38
70571;BME280;58135;50.948;-1.458;2022-07-23T00:56:01;101563.52;;;16.90;13.99
70571;BME280;58135;50.948;-1.458;2022-07-23T00:58:27;101566.30;;;19.63;14.12
70571;BME280;58135;50.948;-1.458;2022-07-23T01:00:52;101568.71;;;17.90;14.07
70571;BME280;58135;50.948;-1.458;2022-07-23T01:03:18;101571.96;;;17.87;14.02
70571;BME280;58135;50.948;-1.458;2022-07-23T01:05:44;101574.27;;;20.66;13.99
70571;BME280;58135;50.948;-1.458;2022-07-23T01:08:09;101576.44;;;19.18;14.02
70571;BME280;58135;50.948;-1.458;2022-07-23T01:10:34;101577.19;;;18.33;13.98
70571;BME280;58135;50.948;-1.458;2022-07-23T01:13:01;101577.66;;;20.04;13.68
70571;BME280;58135;50.948;-1.458;2022-07-23T01:15:25;101576.61;;;18.25;13.74
70571;BME280;58135;50.948;-1.458;2022-07-23T01:17:51;101573.32;;;18.30;13.74
70571;BME280;58135;50.948;-1.458;2022-07-23T01:20:17;101567.34;;;21.50;13.81
70571;BME280;58135;50.948;-1.458;2022-07-23T01:22:42;101567.41;;;18.02;13.81
70571;BME280;58135;50.948;-1.458;2022-07-23T01:25:09;101565.86;;;19.03;13.87
70571;BME280;58135;50.948;-1.458;2022-07-23T01:27:33;101566.21;;;18.19;13.84
70571;BME280;58135;50.948;-1.458;2022-07-23T01:30:00;101564.53;;;18.08;13.83
70571;BME280;58135;50.948;-1.458;2022-07-23T01:32:24;101561.25;;;19.71;13.88
70571;BME280;58135;50.948;-1.458;2022-07-23T01:34:49;101561.79;;;19.75;13.39
70571;BME280;58135;50.948;-1.458;2022-07-23T01:37:16;101559.15;;;20.58;13.43
70571;BME280;58135;50.948;-1.458;2022-07-23T01:39:41;101558.05;;;17.02;13.64
70571;BME280;58135;50.948;-1.458;2022-07-23T01:42:06;101554.26;;;18.61;13.85
70571;BME280;58135;50.948;-1.458;2022-07-23T01:44:32;101552.80;;;18.57;13.84
70571;BME280;58135;50.948;-1.458;2022-07-23T01:46:57;101551.91;;;18.53;13.92
70571;BME280;58135;50.948;-1.458;2022-07-23T01:49:23;101550.13;;;19.21;13.93
70571;BME280;58135;50.948;-1.458;2022-07-23T01:51:49;101547.27;;;19.18;13.73
70571;BME280;58135;50.948;-1.458;2022-07-23T01:54:14;101548.75;;;19.90;13.86
70571;BME280;58135;50.948;-1.458;2022-07-23T01:56:40;101544.25;;;18.17;13.86
70571;BME280;58135;50.948;-1.458;2022-07-23T01:59:05;101546.06;;;19.00;13.76
70571;BME280;58135;50.948;-1.458;2022-07-23T02:01:31;101549.40;;;18.80;13.87
70571;BME280;58135;50.948;-1.458;2022-07-23T02:03:56;101548.67;;;18.67;13.91
70571;BME280;58135;50.948;-1.458;2022-07-23T02:06:22;101548.89;;;17.79;13.86
70571;BME280;58135;50.948;-1.458;2022-07-23T02:08:47;101545.95;;;20.48;13.78
70571;BME280;58135;50.948;-1.458;2022-07-23T02:11:12;101544.42;;;17.75;13.79
70571;BME280;58135;50.948;-1.458;2022-07-23T02:13:39;101543.12;;;19.46;13.90
70571;BME280;58135;50.948;-1.458;2022-07-23T02:16:04;101543.14;;;17.48;13.92
70571;BME280;58135;50.948;-1.458;2022-07-23T02:18:29;101543.54;;;18.38;13.88
70571;BME280;58135;50.948;-1.458;2022-07-23T02:20:55;101546.73;;;19.24;13.81
70571;BME280;58135;50.948;-1.458;2022-07-23T02:23:20;101546.35;;;19.76;13.93
70571;BME280;58135;50.948;-1.458;2022-07-23T02:25:46;101550.51;;;18.87;13.87
70571;BME280;58135;50.948;-1.458;2022-07-23T02:28:12;101549.18;;;20.64;13.88
70571;BME280;58135;50.948;-1.458;2022-07-23T02:30:37;101551.37;;;17.93;13.93
70571;BME280;58135;50.948;-1.458;2022-07-23T02:33:03;101551.75;;;17.85;13.31
70571;BME280;58135;50.948;-1.458;2022-07-23T02:35:28;101553.95;;;18.45;13.71
70571;BME280;58135;50.948;-1.458;2022-07-23T02:37:54;101556.06;;;19.33;13.83
70571;BME280;58135;50.948;-1.458;2022-07-23T02:40:20;101557.90;;;19.16;13.92
70571;BME280;58135;50.948;-1.458;2022-07-23T02:42:45;101557.05;;;18.96;14.08
70571;BME280;58135;50.948;-1.458;2022-07-23T02:45:11;101559.83;;;17.99;14.03
70571;BME280;58135;50.948;-1.458;2022-07-23T02:47:36;101556.08;;;16.28;13.90
70571;BME280;58135;50.948;-1.458;2022-07-23T02:50:02;101554.32;;;20.69;13.97
70571;BME280;58135;50.948;-1.458;2022-07-23T02:52:27;101556.29;;;17.12;14.01
70571;BME280;58135;50.948;-1.458;2022-07-23T02:54:53;101559.27;;;17.98;13.93
70571;BME280;58135;50.948;-1.458;2022-07-23T02:57:18;101561.14;;;19.61;14.07
70571;BME280;58135;50.948;-1.458;2022-07-23T02:59:44;101563.38;;;18.68;14.06
70571;BME280;58135;50.948;-1.458;2022-07-23T03:02:09;101564.24;;;18.59;14.07
70571;BME280;58135;50.948;-1.458;2022-07-23T03:04:35;101564.32;;;16.72;14.12
70571;BME280;58135;50.948;-1.458;2022-07-23T03:07:00;101568.24;;;18.47;14.13
70571;BME280;58135;50.948;-1.458;2022-07-23T03:09:26;101570.49;;;16.67;14.11
70571;BME280;58135;50.948;-1.458;2022-07-23T03:11:51;101567.29;;;15.67;14.06
70571;BME280;58135;50.948;-1.458;2022-07-23T03:14:17;101566.57;;;18.34;14.04
70571;BME280;58135;50.948;-1.458;2022-07-23T03:16:42;101562.85;;;18.23;13.97
70571;BME280;58135;50.948;-1.458;2022-07-23T03:19:08;101561.49;;;18.25;13.60
70571;BME280;58135;50.948;-1.458;2022-07-23T03:21:33;101561.88;;;18.14;14.07
70571;BME280;58135;50.948;-1.458;2022-07-23T03:23:58;101558.53;;;17.17;14.11
70571;BME280;58135;50.948;-1.458;2022-07-23T03:26:24;101560.52;;;18.02;13.97
70571;BME280;58135;50.948;-1.458;2022-07-23T03:28:49;101561.61;;;18.00;13.88
70571;BME280;58135;50.948;-1.458;2022-07-23T03:31:15;101560.82;;;16.97;13.85
70571;BME280;58135;50.948;-1.458;2022-07-23T03:33:41;101562.82;;;17.81;13.92
70571;BME280;58135;50.948;-1.458;2022-07-23T03:36:07;101564.61;;;18.47;13.95
70571;BME280;58135;50.948;-1.458;2022-07-23T03:38:31;101562.60;;;17.52;13.91
70571;BME280;58135;50.948;-1.458;2022-07-23T03:40:58;101563.47;;;19.10;14.00
70571;BME280;58135;50.948;-1.458;2022-07-23T03:43:22;101564.11;;;18.10;14.07
70571;BME280;58135;50.948;-1.458;2022-07-23T03:45:49;101566.39;;;18.04;14.17
70571;BME280;58135;50.948;-1.458;2022-07-23T03:48:14;101567.91;;;17.86;14.19
70571;BME280;58135;50.948;-1.458;2022-07-23T03:50:40;101568.49;;;17.69;14.27
70571;BME280;58135;50.948;-1.458;2022-07-23T03:53:05;101569.18;;;17.65;14.09
70571;BME280;58135;50.948;-1.458;2022-07-23T03:55:31;101565.35;;;16.79;14.00
70571;BME280;58135;50.948;-1.458;2022-07-23T03:57:56;101566.39;;;16.73;14.25
70571;BME280;58135;50.948;-1.458;2022-07-23T04:00:22;101567.48;;;17.53;14.24
70571;BME280;58135;50.948;-1.458;2022-07-23T04:02:48;101569.11;;;20.14;14.30
70571;BME280;58135;50.948;-1.458;2022-07-23T04:05:13;101569.84;;;18.29;14.25
70571;BME280;58135;50.948;-1.458;2022-07-23T04:07:39;101573.03;;;17.29;14.34
70571;BME280;58135;50.948;-1.458;2022-07-23T04:10:05;101572.85;;;18.12;14.34
70571;BME280;58135;50.948;-1.458;2022-07-23T04:12:30;101569.41;;;16.25;14.28
70571;BME280;58135;50.948;-1.458;2022-07-23T04:14:55;101564.60;;;18.01;14.25
70571;BME280;58135;50.948;-1.458;2022-07-23T04:17:21;101566.35;;;17.90;14.38
70571;BME280;58135;50.948;-1.458;2022-07-23T04:19:46;101567.91;;;17.80;14.40
70571;BME280;58135;50.948;-1.458;2022-07-23T04:22:12;101565.62;;;19.56;14.43
70571;BME280;58135;50.948;-1.458;2022-07-23T04:24:38;101565.17;;;17.80;14.37
70571;BME280;58135;50.948;-1.458;2022-07-23T04:27:03;101571.55;;;16.84;14.44
70571;BME280;58135;50.948;-1.458;2022-07-23T04:29:28;101572.07;;;17.72;14.40
70571;BME280;58135;50.948;-1.458;2022-07-23T04:31:54;101571.52;;;16.76;14.42
70571;BME280;58135;50.948;-1.458;2022-07-23T04:34:19;101575.27;;;17.62;14.30
70571;BME280;58135;50.948;-1.458;2022-07-23T04:36:45;101575.75;;;18.50;14.18
70571;BME280;58135;50.948;-1.458;2022-07-23T04:39:11;101576.91;;;16.77;14.27
70571;BME280;58135;50.948;-1.458;2022-07-23T04:41:36;101580.85;;;18.52;14.16
70571;BME280;58135;50.948;-1.458;2022-07-23T04:44:02;101578.06;;;16.50;14.08
70571;BME280;58135;50.948;-1.458;2022-07-23T04:46:27;101571.37;;;18.08;13.94
70571;BME280;58135;50.948;-1.458;2022-07-23T04:48:53;101570.50;;;16.22;14.07
70571;BME280;58135;50.948;-1.458;2022-07-23T04:51:18;101571.40;;;16.07;14.08
70571;BME280;58135;50.948;-1.458;2022-07-23T04:53:44;101574.76;;;17.72;14.22
70571;BME280;58135;50.948;-1.458;2022-07-23T04:56:09;101573.08;;;15.91;14.17
70571;BME280;58135;50.948;-1.458;2022-07-23T04:58:35;101572.56;;;18.55;14.10
70571;BME280;58135;50.948;-1.458;2022-07-23T05:01:00;101566.07;;;17.69;14.16
70571;BME280;58135;50.948;-1.458;2022-07-23T05:03:26;101563.10;;;17.70;14.22
70571;BME280;58135;50.948;-1.458;2022-07-23T05:05:51;101565.42;;;17.75;14.32
70571;BME280;58135;50.948;-1.458;2022-07-23T05:08:17;101568.00;;;17.03;14.22
70571;BME280;58135;50.948;-1.458;2022-07-23T05:10:42;101574.15;;;17.67;14.20
70571;BME280;58135;50.948;-1.458;2022-07-23T05:13:08;101577.99;;;14.92;14.24
70571;BME280;58135;50.948;-1.458;2022-07-23T05:15:34;101581.46;;;16.54;13.80
70571;BME280;58135;50.948;-1.458;2022-07-23T05:17:59;101584.33;;;17.47;13.74
70571;BME280;58135;50.948;-1.458;2022-07-23T05:20:25;101587.02;;;15.72;14.14
70571;BME280;58135;50.948;-1.458;2022-07-23T05:22:50;101588.41;;;17.60;14.34
70571;BME280;58135;50.948;-1.458;2022-07-23T05:25:15;101590.17;;;15.79;14.40
70571;BME280;58135;50.948;-1.458;2022-07-23T05:27:41;101594.94;;;17.58;14.55
70571;BME280;58135;50.948;-1.458;2022-07-23T05:30:07;101598.02;;;16.80;14.60
70571;BME280;58135;50.948;-1.458;2022-07-23T05:32:32;101594.83;;;17.84;14.54
70571;BME280;58135;50.948;-1.458;2022-07-23T05:34:58;101588.21;;;18.00;14.47
70571;BME280;58135;50.948;-1.458;2022-07-23T05:37:23;101587.44;;;18.11;14.53
70571;BME280;58135;50.948;-1.458;2022-07-23T05:39:49;101591.87;;;16.52;14.58
70571;BME280;58135;50.948;-1.458;2022-07-23T05:42:14;101588.55;;;18.31;14.50
70571;BME280;58135;50.948;-1.458;2022-07-23T05:44:40;101589.85;;;17.63;14.43
70571;BME280;58135;50.948;-1.458;2022-07-23T05:47:06;101585.53;;;17.78;14.16
70571;BME280;58135;50.948;-1.458;2022-07-23T05:49:31;101581.80;;;18.78;14.29
70571;BME280;58135;50.948;-1.458;2022-07-23T05:51:56;101582.98;;;16.27;14.31
70571;BME280;58135;50.948;-1.458;2022-07-23T05:54:22;101587.71;;;18.97;14.21
70571;BME280;58135;50.948;-1.458;2022-07-23T05:56:47;101588.97;;;18.19;13.64
70571;BME280;58135;50.948;-1.458;2022-07-23T05:59:13;101588.06;;;17.51;14.19
70571;BME280;58135;50.948;-1.458;2022-07-23T06:01:39;101590.97;;;19.51;13.91
70571;BME280;58135;50.948;-1.458;2022-07-23T06:04:04;101593.60;;;16.87;14.11
70571;BME280;58135;50.948;-1.458;2022-07-23T06:06:29;101594.36;;;18.78;14.44
70571;BME280;58135;50.948;-1.458;2022-07-23T06:08:56;101595.42;;;17.88;14.08
70571;BME280;58135;50.948;-1.458;2022-07-23T06:11:21;101593.98;;;18.02;14.42
70571;BME280;58135;50.948;-1.458;2022-07-23T06:13:46;101592.49;;;18.93;14.45
70571;BME280;58135;50.948;-1.458;2022-07-23T06:16:12;101588.57;;;18.22;14.27
70571;BME280;58135;50.948;-1.458;2022-07-23T06:18:37;101593.96;;;21.63;14.46
70571;BME280;58135;50.948;-1.458;2022-07-23T06:21:02;101596.55;;;16.33;14.62
70571;BME280;58135;50.948;-1.458;2022-07-23T06:23:28;101603.27;;;18.13;14.39
70571;BME280;58135;50.948;-1.458;2022-07-23T06:25:53;101598.90;;;17.47;14.17
70571;BME280;58135;50.948;-1.458;2022-07-23T06:28:20;101597.47;;;17.75;14.27
70571;BME280;58135;50.948;-1.458;2022-07-23T06:30:45;101595.90;;;18.69;14.00
70571;BME280;58135;50.948;-1.458;2022-07-23T06:33:10;101587.69;;;18.68;14.26
70571;BME280;58135;50.948;-1.458;2022-07-23T06:35:36;101582.16;;;18.46;14.35
70571;BME280;58135;50.948;-1.458;2022-07-23T06:38:01;101585.34;;;18.58;14.29
70571;BME280;58135;50.948;-1.458;2022-07-23T06:40:27;101584.71;;;18.73;14.45
70571;BME280;58135;50.948;-1.458;2022-07-23T06:42:53;101587.16;;;19.18;14.40
70571;BME280;58135;50.948;-1.458;2022-07-23T06:45:19;101589.93;;;19.62;14.26
70571;BME280;58135;50.948;-1.458;2022-07-23T06:47:44;101595.87;;;19.01;14.21
70571;BME280;58135;50.948;-1.458;2022-07-23T06:50:09;101598.28;;;18.37;14.34
70571;BME280;58135;50.948;-1.458;2022-07-23T06:52:35;101601.27;;;18.85;14.18
70571;BME280;58135;50.948;-1.458;2022-07-23T06:55:01;101605.98;;;17.17;14.28
70571;BME280;58135;50.948;-1.458;2022-07-23T06:57:26;101606.44;;;18.66;14.34
70571;BME280;58135;50.948;-1.458;2022-07-23T06:59:52;101605.52;;;20.02;14.13
70571;BME280;58135;50.948;-1.458;2022-07-23T07:02:17;101609.20;;;17.72;13.91
70571;BME280;58135;50.948;-1.458;2022-07-23T07:04:43;101610.28;;;20.43;14.00
70571;BME280;58135;50.948;-1.458;2022-07-23T07:07:08;101608.13;;;20.51;13.99
70571;BME280;58135;50.948;-1.458;2022-07-23T07:09:34;101604.33;;;18.68;13.38
70571;BME280;58135;50.948;-1.458;2022-07-23T07:11:59;101607.69;;;17.85;13.95
70571;BME280;58135;50.948;-1.458;2022-07-23T07:14:25;101611.98;;;20.65;13.72
70571;BME280;58135;50.948;-1.458;2022-07-23T07:16:50;101611.50;;;20.39;13.41
70571;BME280;58135;50.948;-1.458;2022-07-23T07:19:16;101614.04;;;16.77;14.00
70571;BME280;58135;50.948;-1.458;2022-07-23T07:21:41;101610.04;;;17.94;14.08
70571;BME280;58135;50.948;-1.458;2022-07-23T07:24:07;101606.59;;;17.98;13.41
70571;BME280;58135;50.948;-1.458;2022-07-23T07:26:33;101607.17;;;19.02;13.96
70571;BME280;58135;50.948;-1.458;2022-07-23T07:28:58;101611.87;;;19.26;13.96
70571;BME280;58135;50.948;-1.458;2022-07-23T07:31:23;101612.52;;;19.56;14.12
70571;BME280;58135;50.948;-1.458;2022-07-23T07:33:49;101607.13;;;18.98;13.92
70571;BME280;58135;50.948;-1.458;2022-07-23T07:36:14;101608.06;;;18.16;13.76
70571;BME280;58135;50.948;-1.458;2022-07-23T07:38:40;101610.39;;;20.23;13.62
70571;BME280;58135;50.948;-1.458;2022-07-23T07:41:06;101613.73;;;19.48;13.82
70571;BME280;58135;50.948;-1.458;2022-07-23T07:43:31;101616.36;;;18.76;13.69
70571;BME280;58135;50.948;-1.458;2022-07-23T07:45:57;101618.13;;;20.81;13.79
70571;BME280;58135;50.948;-1.458;2022-07-23T07:48:22;101621.19;;;21.06;13.57
70571;BME280;58135;50.948;-1.458;2022-07-23T07:50:47;101625.10;;;20.13;13.84
70571;BME280;58135;50.948;-1.458;2022-07-23T07:53:13;101628.65;;;18.62;14.04
70571;BME280;58135;50.948;-1.458;2022-07-23T07:55:38;101626.92;;;20.53;13.66
70571;BME280;58135;50.948;-1.458;2022-07-23T07:58:04;101620.90;;;18.02;13.40
70571;BME280;58135;50.948;-1.458;2022-07-23T08:00:30;101619.17;;;20.75;13.64
70571;BME280;58135;50.948;-1.458;2022-07-23T08:05:23;101613.68;;;19.24;13.67
70571;BME280;58135;50.948;-1.458;2022-07-23T08:07:46;101612.77;;;20.41;13.51
70571;BME280;58135;50.948;-1.458;2022-07-23T08:10:12;101610.95;;;19.69;13.61
70571;BME280;58135;50.948;-1.458;2022-07-23T08:12:39;101609.64;;;21.80;13.29
70571;BME280;58135;50.948;-1.458;2022-07-23T08:15:04;101607.79;;;19.30;12.08
70571;BME280;58135;50.948;-1.458;2022-07-23T08:17:29;101609.08;;;20.01;12.25
70571;BME280;58135;50.948;-1.458;2022-07-23T08:19:54;101608.80;;;20.03;13.13
70571;BME280;58135;50.948;-1.458;2022-07-23T08:22:19;101609.72;;;22.11;11.62
70571;BME280;58135;50.948;-1.458;2022-07-23T08:24:45;101614.09;;;20.78;12.92
70571;BME280;58135;50.948;-1.458;2022-07-23T08:27:10;101614.07;;;19.91;12.02
70571;BME280;58135;50.948;-1.458;2022-07-23T08:29:36;101612.11;;;21.62;12.28
70571;BME280;58135;50.948;-1.458;2022-07-23T08:32:02;101612.45;;;21.79;12.25
70571;BME280;58135;50.948;-1.458;2022-07-23T08:34:27;101609.40;;;19.33;12.43
70571;BME280;58135;50.948;-1.458;2022-07-23T08:36:52;101611.36;;;20.43;12.22
70571;BME280;58135;50.948;-1.458;2022-07-23T08:39:18;101605.50;;;19.97;11.62
70571;BME280;58135;50.948;-1.458;2022-07-23T08:41:44;101607.95;;;21.53;11.71
70571;BME280;58135;50.948;-1.458;2022-07-23T08:44:09;101610.85;;;20.80;11.47
70571;BME280;58135;50.948;-1.458;2022-07-23T08:46:36;101608.16;;;21.87;11.51
70571;BME280;58135;50.948;-1.458;2022-07-23T08:49:00;101609.08;;;22.93;11.40
70571;BME280;58135;50.948;-1.458;2022-07-23T08:51:26;101605.27;;;20.63;10.93
70571;BME280;58135;50.948;-1.458;2022-07-23T08:53:51;101604.00;;;21.66;11.29
70571;BME280;58135;50.948;-1.458;2022-07-23T08:56:17;101610.34;;;23.15;11.46
70571;BME280;58135;50.948;-1.458;2022-07-23T08:58:43;101612.91;;;21.60;10.96
70571;BME280;58135;50.948;-1.458;2022-07-23T09:01:08;101612.87;;;21.98;10.97
70571;BME280;58135;50.948;-1.458;2022-07-23T09:03:35;101611.53;;;23.14;10.62
70571;BME280;58135;50.948;-1.458;2022-07-23T09:05:59;101614.14;;;21.41;10.84
70571;BME280;58135;50.948;-1.458;2022-07-23T09:08:27;101619.44;;;22.81;10.71
70571;BME280;58135;50.948;-1.458;2022-07-23T09:10:53;101620.63;;;23.19;10.68
70571;BME280;58135;50.948;-1.458;2022-07-23T09:13:24;101622.37;;;22.35;10.55
70571;BME280;58135;50.948;-1.458;2022-07-23T09:15:48;101628.52;;;20.86;10.83
70571;BME280;58135;50.948;-1.458;2022-07-23T09:18:06;101629.18;;;22.14;10.74
70571;BME280;58135;50.948;-1.458;2022-07-23T09:20:32;101626.67;;;20.52;10.27
70571;BME280;58135;50.948;-1.458;2022-07-23T09:22:57;101624.35;;;23.15;10.59
70571;BME280;58135;50.948;-1.458;2022-07-23T09:25:23;101620.98;;;22.64;10.50
70571;BME280;58135;50.948;-1.458;2022-07-23T09:27:52;101621.12;;;21.29;10.47
70571;BME280;58135;50.948;-1.458;2022-07-23T09:30:14;101625.42;;;23.42;10.56
70571;BME280;58135;50.948;-1.458;2022-07-23T09:32:39;101626.83;;;23.65;10.50
70571;BME280;58135;50.948;-1.458;2022-07-23T09:35:05;101623.79;;;23.97;10.11
70571;BME280;58135;50.948;-1.458;2022-07-23T09:37:30;101618.82;;;22.38;10.24
70571;BME280;58135;50.948;-1.458;2022-07-23T09:40:03;101619.48;;;22.49;9.99
70571;BME280;58135;50.948;-1.458;2022-07-23T09:42:23;101618.17;;;24.22;10.07
70571;BME280;58135;50.948;-1.458;2022-07-23T09:44:48;101611.78;;;22.77;10.11
70571;BME280;58135;50.948;-1.458;2022-07-23T09:47:13;101613.47;;;24.26;10.22
70571;BME280;58135;50.948;-1.458;2022-07-23T09:49:37;101614.19;;;23.61;10.01
70571;BME280;58135;50.948;-1.458;2022-07-23T09:52:03;101613.31;;;23.83;9.96
70571;BME280;58135;50.948;-1.458;2022-07-23T09:54:31;101611.09;;;23.00;9.63
70571;BME280;58135;50.948;-1.458;2022-07-23T09:56:55;101612.48;;;20.99;9.88
70571;BME280;58135;50.948;-1.458;2022-07-23T09:59:23;101614.43;;;22.16;9.73
70571;BME280;58135;50.948;-1.458;2022-07-23T10:01:45;101615.23;;;24.01;9.51
70571;BME280;58135;50.948;-1.458;2022-07-23T10:04:11;101620.40;;;23.16;9.64
70571;BME280;58135;50.948;-1.458;2022-07-23T10:06:36;101619.90;;;23.30;9.67
70571;BME280;58135;50.948;-1.458;2022-07-23T10:09:01;101612.69;;;22.77;9.81
70571;BME280;58135;50.948;-1.458;2022-07-23T10:11:27;101608.75;;;22.94;9.37
70571;BME280;58135;50.948;-1.458;2022-07-23T10:13:53;101604.22;;;23.69;9.58
70571;BME280;58135;50.948;-1.458;2022-07-23T10:16:18;101606.79;;;25.96;9.95
70571;BME280;58135;50.948;-1.458;2022-07-23T10:18:43;101603.39;;;22.58;9.74
70571;BME280;58135;50.948;-1.458;2022-07-23T10:21:09;101597.85;;;23.53;9.74
70571;BME280;58135;50.948;-1.458;2022-07-23T10:23:37;101599.99;;;24.83;10.03
70571;BME280;58135;50.948;-1.458;2022-07-23T10:26:05;101596.54;;;23.04;9.68
70571;BME280;58135;50.948;-1.458;2022-07-23T10:28:46;101588.82;;;24.67;9.63
70571;BME280;58135;50.948;-1.458;2022-07-23T10:30:59;101589.07;;;23.98;9.92
70571;BME280;58135;50.948;-1.458;2022-07-23T10:33:24;101578.63;;;23.28;9.44
70571;BME280;58135;50.948;-1.458;2022-07-23T10:35:48;101574.99;;;23.11;9.64
70571;BME280;58135;50.948;-1.458;2022-07-23T10:38:12;101577.47;;;23.39;9.79
70571;BME280;58135;50.948;-1.458;2022-07-23T10:40:32;101577.03;;;23.54;9.69
70571;BME280;58135;50.948;-1.458;2022-07-23T10:42:59;101574.06;;;25.69;9.61
70571;BME280;58135;50.948;-1.458;2022-07-23T10:45:28;101576.49;;;22.57;9.73
70571;BME280;58135;50.948;-1.458;2022-07-23T10:47:49;101578.11;;;24.03;9.69
70571;BME280;58135;50.948;-1.458;2022-07-23T10:50:21;101572.90;;;25.32;9.37
70571;BME280;58135;50.948;-1.458;2022-07-23T10:52:39;101574.39;;;23.82;9.39
70571;BME280;58135;50.948;-1.458;2022-07-23T10:57:30;101565.90;;;24.05;9.51
70571;BME280;58135;50.948;-1.458;2022-07-23T11:00:14;101566.33;;;25.14;9.63
70571;BME280;58135;50.948;-1.458;2022-07-23T11:02:22;101569.19;;;26.33;9.49
70571;BME280;58135;50.948;-1.458;2022-07-23T11:04:48;101578.36;;;24.68;9.49
70571;BME280;58135;50.948;-1.458;2022-07-23T11:07:12;101578.64;;;25.01;9.40
70571;BME280;58135;50.948;-1.458;2022-07-23T11:09:40;101583.51;;;25.18;9.41
70571;BME280;58135;50.948;-1.458;2022-07-23T11:16:54;101590.72;;;25.99;9.30
70571;BME280;58135;50.948;-1.458;2022-07-23T11:19:19;101589.93;;;28.13;9.36
70571;BME280;58135;50.948;-1.458;2022-07-23T11:21:47;101594.46;;;25.02;9.28
70571;BME280;58135;50.948;-1.458;2022-07-23T11:24:12;101593.61;;;26.29;9.13
70571;BME280;58135;50.948;-1.458;2022-07-23T11:26:44;101595.15;;;26.59;9.15
70571;BME280;58135;50.948;-1.458;2022-07-23T11:31:27;101593.39;;;27.06;9.20
70571;BME280;58135;50.948;-1.458;2022-07-23T11:36:17;101597.19;;;25.16;8.94
70571;BME280;58135;50.948;-1.458;2022-07-23T11:38:44;101593.56;;;27.46;8.90
70571;BME280;58135;50.948;-1.458;2022-07-23T11:41:08;101588.38;;;26.71;8.49
70571;BME280;58135;50.948;-1.458;2022-07-23T11:43:36;101587.03;;;29.32;8.24
70571;BME280;58135;50.948;-1.458;2022-07-23T11:46:00;101589.35;;;30.03;7.65
70571;BME280;58135;50.948;-1.458;2022-07-23T11:48:26;101584.90;;;30.90;7.35
70571;BME280;58135;50.948;-1.458;2022-07-23T11:50:51;101583.81;;;32.04;6.85
70571;BME280;58135;50.948;-1.458;2022-07-23T11:53:21;101581.40;;;34.70;6.55
70571;BME280;58135;50.948;-1.458;2022-07-23T11:55:41;101580.10;;;33.19;5.86
70571;BME280;58135;50.948;-1.458;2022-07-23T11:58:07;101579.49;;;34.18;5.79
70571;BME280;58135;50.948;-1.458;2022-07-23T12:00:32;101576.63;;;34.82;5.66
70571;BME280;58135;50.948;-1.458;2022-07-23T12:02:59;101580.08;;;34.72;5.25
70571;BME280;58135;50.948;-1.458;2022-07-23T12:05:24;101576.20;;;32.90;5.42
70571;BME280;58135;50.948;-1.458;2022-07-23T12:07:49;101578.19;;;33.55;5.84
70571;BME280;58135;50.948;-1.458;2022-07-23T12:10:16;101579.99;;;33.66;6.06
70571;BME280;58135;50.948;-1.458;2022-07-23T12:12:41;101589.26;;;33.79;5.81
70571;BME280;58135;50.948;-1.458;2022-07-23T12:15:06;101587.83;;;30.43;6.39
70571;BME280;58135;50.948;-1.458;2022-07-23T12:17:32;101590.56;;;32.07;6.47
70571;BME280;58135;50.948;-1.458;2022-07-23T12:19:56;101593.98;;;32.78;6.58
70571;BME280;58135;50.948;-1.458;2022-07-23T12:22:21;101581.88;;;31.89;6.66
70571;BME280;58135;50.948;-1.458;2022-07-23T12:24:52;101576.91;;;35.35;5.95
70571;BME280;58135;50.948;-1.458;2022-07-23T12:27:12;101568.35;;;35.02;5.88
70571;BME280;58135;50.948;-1.458;2022-07-23T12:29:37;101563.65;;;34.82;5.47
70571;BME280;58135;50.948;-1.458;2022-07-23T12:32:02;101564.61;;;34.51;5.59
70571;BME280;58135;50.948;-1.458;2022-07-23T12:34:27;101566.96;;;34.40;5.52
70571;BME280;58135;50.948;-1.458;2022-07-23T12:36:53;101572.32;;;34.24;5.59
70571;BME280;58135;50.948;-1.458;2022-07-23T12:39:29;101572.68;;;31.09;5.69
70571;BME280;58135;50.948;-1.458;2022-07-23T12:41:53;101575.11;;;31.33;6.21
70571;BME280;58135;50.948;-1.458;2022-07-23T12:44:14;101583.62;;;31.65;5.94
70571;BME280;58135;50.948;-1.458;2022-07-23T12:46:34;101580.46;;;31.43;5.88